Terminal Aerodrome Forecast
Issued by NWS Omaha/Valley, NE

Home | Current Version | Previous Version | Text Only | Print | Product List | Glossary Off
Versions: 1 2 3 4 5 6 7 8 9 10 11 12 13 14 15 16 17

000
FTUS43 KOAX 181452 AAA
TAFOFK
TAF AMD
KOFK 181452Z 1815/1912 33015G23KT P6SM OVC015
      TEMPO 1815/1817 2SM -SN OVC008
     FM182200 33014KT P6SM OVC025
     FM190200 33008KT P6SM SCT015 BKN035
     FM190500 33007KT P6SM BKN009=

USA.gov is the U.S. government's official web portal to all federal, state and local government web resources and services.